WXM80 ListenWXM80 Stop

You find our weather info also at:

UK Metoffice

WeatherCloud

Weather Underground

Northeastern Weather Network

AWEKAS

Citizen Weather Observer Program (CWOP)

HAMweather, WeatherForYou, PWS Weather


Weather Underground History page Text

Daily Summary for January 4, 2016 Units:  English    Metric   Both
« Previous Day
Next Day »
Daily Weekly Monthly Yearly Custom
  High: Low: Average:
Temperature: 37.5 °F 15.1 °F 28 °F
Dew Point: 29.9 °F 6.2 °F 16.8 °F
Humidity: 75 % 42 % 63 %
Wind Speed: 15.5 mph 1.6 mph 8.1 mph
Wind Gust: 25.3 mph - -
Wind:- - SSW
Pressure: 30.35 in 29.84 in -
Precipitation: 0.00 in    
Historical Graphs
 
 
Tabular Data for January 4, 2016
Time Temperature Dew Point Pressure Wind Wind Speed Wind Gust Humidity Rainfall Rate (Hourly)
00:02 37.5 °F 29.3 °F 29.85 in WNW 3.5 mph 8.1 mph 72 % 0.00 in
00:07 37.5 °F 29.3 °F 29.85 in WSW 5.5 mph 6.9 mph 72 % 0.00 in
00:12 37.5 °F 29.3 °F 29.85 in West 3.9 mph 6.9 mph 72 % 0.00 in
00:17 37.5 °F 29.3 °F 29.85 in WSW 2.7 mph 8.1 mph 72 % 0.00 in
00:22 37.4 °F 29.2 °F 29.85 in West 5.2 mph 9.2 mph 72 % 0.00 in
00:28 37.4 °F 29.2 °F 29.85 in West 1.8 mph 7.0 mph 72 % 0.00 in
00:33 37.3 °F 29.4 °F 29.84 in WSW 4.2 mph 10.0 mph 73 % 0.00 in
00:38 37.3 °F 29.4 °F 29.84 in WSW 3.4 mph 9.2 mph 73 % 0.00 in
00:43 37.2 °F 29.3 °F 29.84 in West 5.7 mph 8.1 mph 73 % 0.00 in
00:48 37.2 °F 29.3 °F 29.84 in WSW 6.2 mph 11.5 mph 73 % 0.00 in
00:53 37.1 °F 29.6 °F 29.84 in WSW 4.7 mph 8.1 mph 74 % 0.00 in
00:58 37.1 °F 29.6 °F 29.84 in West 4.7 mph 6.9 mph 74 % 0.00 in
01:03 37.1 °F 29.6 °F 29.84 in WNW 2.5 mph 8.1 mph 74 % 0.00 in
01:08 37.1 °F 29.6 °F 29.84 in WNW 3.9 mph 8.1 mph 74 % 0.00 in
01:13 37.0 °F 29.5 °F 29.85 in WSW 4.1 mph 5.8 mph 74 % 0.00 in
01:19 37.0 °F 29.8 °F 29.85 in West 2.1 mph 8.1 mph 75 % 0.00 in
01:24 37.0 °F 29.8 °F 29.85 in NW 3.2 mph 6.9 mph 75 % 0.00 in
01:29 36.9 °F 29.7 °F 29.85 in WNW 5.8 mph 11.5 mph 75 % 0.00 in
01:34 37.0 °F 29.8 °F 29.85 in NW 6.4 mph 12.7 mph 75 % 0.00 in
01:39 37.1 °F 29.9 °F 29.85 in WNW 5.6 mph 11.5 mph 75 % 0.00 in
01:44 37.1 °F 29.9 °F 29.85 in NW 4.9 mph 9.2 mph 75 % 0.00 in
01:49 37.1 °F 29.6 °F 29.85 in WNW 4.4 mph 8.1 mph 74 % 0.00 in
01:54 37.1 °F 29.6 °F 29.86 in West 3.5 mph 7.0 mph 74 % 0.00 in
01:59 37.2 °F 29.7 °F 29.86 in WNW 7.6 mph 11.5 mph 74 % 0.00 in
02:04 37.2 °F 29.7 °F 29.86 in WNW 6.9 mph 9.0 mph 74 % 0.00 in
02:10 37.3 °F 29.8 °F 29.86 in WNW 7.8 mph 10.4 mph 74 % 0.00 in
02:15 37.3 °F 29.4 °F 29.86 in NNW 6.1 mph 8.1 mph 73 % 0.00 in
02:20 37.3 °F 29.1 °F 29.86 in WNW 3.2 mph 10.4 mph 72 % 0.00 in
02:25 37.3 °F 29.1 °F 29.86 in NW 5.0 mph 9.2 mph 72 % 0.00 in
02:30 37.3 °F 29.1 °F 29.86 in WNW 6.2 mph 9.2 mph 72 % 0.00 in
02:35 37.3 °F 29.1 °F 29.86 in NW 6.1 mph 9.2 mph 72 % 0.00 in
02:40 37.3 °F 29.1 °F 29.86 in NNW 2.2 mph 8.1 mph 72 % 0.00 in
02:45 37.3 °F 28.4 °F 29.86 in WNW 5.5 mph 13.8 mph 70 % 0.00 in
02:50 37.3 °F 28.4 °F 29.86 in NW 6.3 mph 9.2 mph 70 % 0.00 in
02:55 37.3 °F 28.4 °F 29.86 in NW 6.8 mph 13.0 mph 70 % 0.00 in
03:01 37.2 °F 27.6 °F 29.86 in WSW 7.8 mph 10.4 mph 68 % 0.00 in
03:06 37.2 °F 27.2 °F 29.86 in NNW 8.0 mph 13.8 mph 67 % 0.00 in
03:11 37.1 °F 27.2 °F 29.86 in North 4.2 mph 9.2 mph 67 % 0.00 in
03:16 37.1 °F 27.5 °F 29.86 in NNW 7.0 mph 10.4 mph 68 % 0.00 in
03:21 37.1 °F 27.5 °F 29.86 in WSW 5.2 mph 11.5 mph 68 % 0.00 in
03:26 37.1 °F 27.2 °F 29.86 in NW 6.1 mph 9.2 mph 67 % 0.00 in
03:31 37.1 °F 26.8 °F 29.86 in NW 7.9 mph 12.7 mph 66 % 0.00 in
03:36 37.0 °F 26.3 °F 29.86 in NNW 5.8 mph 9.2 mph 65 % 0.00 in
03:41 36.9 °F 26.2 °F 29.86 in NW 4.1 mph 6.0 mph 65 % 0.00 in
03:46 36.8 °F 26.1 °F 29.86 in NW 4.1 mph 6.9 mph 65 % 0.00 in
03:52 36.7 °F 26.0 °F 29.86 in NNW 9.6 mph 9.6 mph 65 % 0.00 in
03:57 36.6 °F 25.9 °F 29.86 in West 4.2 mph 9.2 mph 65 % 0.00 in
04:02 36.6 °F 25.6 °F 29.86 in NW 6.6 mph 12.7 mph 64 % 0.00 in
04:07 36.5 °F 25.8 °F 29.86 in North 5.5 mph 10.4 mph 65 % 0.00 in
04:12 36.4 °F 25.4 °F 29.86 in NW 5.1 mph 9.2 mph 64 % 0.00 in
04:17 36.4 °F 25.7 °F 29.86 in WNW 6.8 mph 10.4 mph 65 % 0.00 in
04:22 36.3 °F 25.3 °F 29.86 in North 4.3 mph 11.5 mph 64 % 0.00 in
04:27 36.2 °F 25.6 °F 29.86 in WNW 4.6 mph 6.9 mph 65 % 0.00 in
04:32 36.2 °F 25.2 °F 29.86 in NW 3.1 mph 6.9 mph 64 % 0.00 in
04:37 36.1 °F 25.1 °F 29.86 in WNW 4.3 mph 8.1 mph 64 % 0.00 in
04:43 36.0 °F 24.6 °F 29.86 in NNW 5.2 mph 9.2 mph 63 % 0.00 in
04:48 36.0 °F 24.6 °F 29.85 in NW 5.3 mph 11.5 mph 63 % 0.00 in
04:53 35.9 °F 24.9 °F 29.86 in NNW 6.1 mph 11.5 mph 64 % 0.00 in
04:58 35.8 °F 25.2 °F 29.86 in NNW 5.4 mph 12.0 mph 65 % 0.00 in
05:03 35.7 °F 24.7 °F 29.86 in NW 5.8 mph 13.8 mph 64 % 0.00 in
05:08 35.6 °F 24.6 °F 29.87 in NNW 4.9 mph 9.2 mph 64 % 0.00 in
05:13 35.5 °F 24.9 °F 29.87 in West 4.5 mph 9.2 mph 65 % 0.00 in
05:18 35.4 °F 24.8 °F 29.87 in NNW 4.6 mph 10.0 mph 65 % 0.00 in
05:23 35.3 °F 24.7 °F 29.87 in NW 4.6 mph 11.5 mph 65 % 0.00 in
05:28 35.2 °F 25.0 °F 29.88 in WNW 3.7 mph 6.9 mph 66 % 0.00 in
05:34 35.1 °F 24.9 °F 29.88 in WNW 5.6 mph 15.0 mph 66 % 0.00 in
05:39 35.0 °F 24.8 °F 29.88 in North 3.3 mph 11.5 mph 66 % 0.00 in
05:44 34.8 °F 24.6 °F 29.89 in West 1.6 mph 9.2 mph 66 % 0.00 in
05:49 34.8 °F 25.3 °F 29.89 in NW 6.0 mph 11.0 mph 68 % 0.00 in
05:54 34.8 °F 25.7 °F 29.89 in NNW 2.8 mph 5.8 mph 69 % 0.00 in
05:59 34.8 °F 25.7 °F 29.89 in NW 3.0 mph 5.8 mph 69 % 0.00 in
06:04 34.8 °F 26.7 °F 29.90 in NW 8.1 mph 11.5 mph 72 % 0.00 in
06:09 34.8 °F 27.0 °F 29.90 in NW 9.1 mph 13.8 mph 73 % 0.00 in
06:14 34.8 °F 27.0 °F 29.91 in North 8.2 mph 12.7 mph 73 % 0.00 in
06:19 34.6 °F 26.2 °F 29.91 in North 7.3 mph 12.7 mph 71 % 0.00 in
06:25 34.3 °F 25.5 °F 29.91 in North 7.1 mph 11.5 mph 70 % 0.00 in
06:30 34.0 °F 24.5 °F 29.92 in NE 8.8 mph 14.0 mph 68 % 0.00 in
06:35 33.8 °F 24.4 °F 29.92 in NNE 11.6 mph 13.0 mph 68 % 0.00 in
06:40 33.5 °F 24.1 °F 29.92 in North 9.6 mph 15.0 mph 68 % 0.00 in
06:45 33.3 °F 24.2 °F 29.93 in NE 5.8 mph 10.4 mph 69 % 0.00 in
06:50 33.2 °F 24.1 °F 29.93 in NNE 7.8 mph 12.0 mph 69 % 0.00 in
06:55 33.0 °F 22.9 °F 29.93 in NNE 8.9 mph 15.0 mph 66 % 0.00 in
07:00 32.9 °F 22.8 °F 29.93 in NW 6.8 mph 11.5 mph 66 % 0.00 in
07:05 32.8 °F 22.3 °F 29.93 in North 7.1 mph 12.7 mph 65 % 0.00 in
07:10 32.7 °F 22.2 °F 29.94 in NNE 9.8 mph 12.7 mph 65 % 0.00 in
07:16 32.6 °F 22.5 °F 29.94 in NNE 4.2 mph 8.1 mph 66 % 0.00 in
07:21 32.5 °F 21.7 °F 29.94 in NE 10.2 mph 16.1 mph 64 % 0.00 in
07:26 32.4 °F 20.4 °F 29.94 in North 13.2 mph 19.0 mph 61 % 0.00 in
07:31 32.2 °F 21.4 °F 29.94 in North 8.4 mph 11.5 mph 64 % 0.00 in
07:36 32.1 °F 20.9 °F 29.94 in NE 8.9 mph 13.8 mph 63 % 0.00 in
07:41 32.0 °F 20.4 °F 29.95 in NNW 10.2 mph 15.0 mph 62 % 0.00 in
07:46 31.8 °F 20.3 °F 29.95 in NE 8.9 mph 13.8 mph 62 % 0.00 in
07:51 31.7 °F 19.0 °F 29.95 in NNE 11.0 mph 15.0 mph 59 % 0.00 in
07:56 31.5 °F 19.2 °F 29.96 in North 9.1 mph 11.5 mph 60 % 0.00 in
08:01 31.4 °F 19.1 °F 29.96 in NNE 9.6 mph 16.0 mph 60 % 0.00 in
08:07 31.2 °F 19.3 °F 29.96 in NNE 6.5 mph 13.8 mph 61 % 0.00 in
08:12 31.1 °F 18.8 °F 29.97 in NNW 8.7 mph 13.8 mph 60 % 0.00 in
08:17 30.9 °F 19.4 °F 29.97 in NE 7.7 mph 16.1 mph 62 % 0.00 in
08:22 30.8 °F 19.7 °F 29.97 in NNE 7.3 mph 14.0 mph 63 % 0.00 in
08:27 30.6 °F 19.9 °F 29.97 in North 8.7 mph 12.7 mph 64 % 0.00 in
08:32 30.4 °F 19.3 °F 29.98 in NNE 7.4 mph 13.8 mph 63 % 0.00 in
08:37 30.2 °F 19.1 °F 29.98 in NNE 7.2 mph 14.0 mph 63 % 0.00 in
08:42 30.1 °F 19.0 °F 29.99 in North 8.4 mph 11.5 mph 63 % 0.00 in
08:47 30.1 °F 19.4 °F 29.99 in NNW 7.4 mph 11.5 mph 64 % 0.00 in
08:52 30.0 °F 19.3 °F 29.99 in NNE 7.9 mph 12.0 mph 64 % 0.00 in
08:58 29.9 °F 18.5 °F 29.99 in NNE 5.3 mph 12.7 mph 62 % 0.00 in
09:03 29.8 °F 18.7 °F 30.00 in North 9.3 mph 13.8 mph 63 % 0.00 in
09:08 29.8 °F 18.7 °F 30.00 in NW 8.2 mph 10.4 mph 63 % 0.00 in
09:13 29.6 °F 18.2 °F 30.00 in North 9.0 mph 11.5 mph 62 % 0.00 in
09:23 29.6 °F 18.5 °F 30.00 in NNE 6.6 mph 8.1 mph 63 % 0.00 in
09:28 29.6 °F 18.5 °F 30.00 in NNE 5.1 mph 8.1 mph 63 % 0.00 in
09:33 29.6 °F 18.2 °F 30.01 in North 8.0 mph 11.5 mph 62 % 0.00 in
09:38 29.7 °F 18.3 °F 30.00 in NNE 8.7 mph 15.0 mph 62 % 0.00 in
09:43 29.7 °F 17.9 °F 30.00 in NNW 6.5 mph 11.5 mph 61 % 0.00 in
09:49 29.8 °F 18.4 °F 30.00 in NNW 4.7 mph 10.4 mph 62 % 0.00 in
09:54 30.0 °F 18.2 °F 30.01 in NNW 7.2 mph 10.4 mph 61 % 0.00 in
09:59 30.1 °F 17.9 °F 30.02 in NNW 6.3 mph 10.4 mph 60 % 0.00 in
10:04 30.1 °F 17.5 °F 30.01 in NW 3.0 mph 6.9 mph 59 % 0.00 in
10:09 30.2 °F 16.4 °F 30.01 in NW 4.4 mph 10.4 mph 56 % 0.00 in
10:14 30.1 °F 15.0 °F 30.01 in NNE 5.4 mph 10.4 mph 53 % 0.00 in
10:19 29.8 °F 14.7 °F 30.01 in NNW 4.2 mph 11.0 mph 53 % 0.00 in
10:24 29.9 °F 15.7 °F 30.01 in NNW 4.6 mph 8.0 mph 55 % 0.00 in
10:29 30.2 °F 16.0 °F 30.01 in NNE 6.5 mph 11.5 mph 55 % 0.00 in
10:34 30.3 °F 15.6 °F 30.01 in NW 3.9 mph 8.1 mph 54 % 0.00 in
10:40 30.5 °F 16.2 °F 30.00 in WNW 4.3 mph 8.0 mph 55 % 0.00 in
10:45 30.6 °F 15.5 °F 30.01 in North 5.0 mph 13.8 mph 53 % 0.00 in
10:50 30.6 °F 16.3 °F 30.00 in North 3.7 mph 11.5 mph 55 % 0.00 in
10:55 30.7 °F 16.0 °F 30.00 in North 4.2 mph 7.0 mph 54 % 0.00 in
11:00 30.8 °F 15.7 °F 30.01 in North 5.2 mph 8.1 mph 53 % 0.00 in
11:05 30.9 °F 16.6 °F 30.01 in NW 3.3 mph 5.8 mph 55 % 0.00 in
11:10 31.0 °F 14.5 °F 30.00 in NNW 6.7 mph 12.0 mph 50 % 0.00 in
11:15 31.0 °F 13.6 °F 30.00 in NW 5.6 mph 10.4 mph 48 % 0.00 in
11:20 30.8 °F 11.9 °F 30.00 in North 5.0 mph 11.5 mph 45 % 0.00 in
11:25 30.7 °F 11.3 °F 30.00 in NNW 7.1 mph 11.5 mph 44 % 0.00 in
11:31 30.7 °F 11.3 °F 29.99 in NW 5.5 mph 9.0 mph 44 % 0.00 in
11:36 30.6 °F 11.2 °F 29.99 in NE 7.2 mph 9.2 mph 44 % 0.00 in
11:41 30.5 °F 11.7 °F 29.99 in NNE 6.3 mph 9.2 mph 45 % 0.00 in
11:46 30.5 °F 10.6 °F 29.99 in North 9.9 mph 13.8 mph 43 % 0.00 in
11:51 30.3 °F 10.4 °F 29.99 in NNE 6.2 mph 9.2 mph 43 % 0.00 in
11:56 30.3 °F 10.4 °F 29.99 in North 6.0 mph 12.0 mph 43 % 0.00 in
12:01 30.3 °F 9.9 °F 29.99 in NNE 8.8 mph 13.8 mph 42 % 0.00 in
12:06 30.3 °F 11.0 °F 29.99 in NNE 9.1 mph 11.5 mph 44 % 0.00 in
12:11 30.4 °F 11.1 °F 29.99 in North 7.2 mph 11.5 mph 44 % 0.00 in
12:16 30.5 °F 10.6 °F 29.99 in North 6.2 mph 11.5 mph 43 % 0.00 in
12:22 30.7 °F 12.3 °F 29.99 in North 8.9 mph 12.7 mph 46 % 0.00 in
12:27 30.7 °F 11.8 °F 29.99 in NNW 11.4 mph 17.3 mph 45 % 0.00 in
12:32 30.8 °F 11.9 °F 29.99 in NNW 6.5 mph 12.7 mph 45 % 0.00 in
12:37 30.9 °F 12.0 °F 29.99 in NNW 7.9 mph 12.7 mph 45 % 0.00 in
12:42 30.9 °F 11.5 °F 29.99 in WNW 8.3 mph 17.3 mph 44 % 0.00 in
12:47 30.8 °F 11.4 °F 29.99 in NE 10.9 mph 17.3 mph 44 % 0.00 in
12:52 30.7 °F 11.3 °F 29.99 in North 5.8 mph 11.5 mph 44 % 0.00 in
12:57 30.8 °F 11.9 °F 29.99 in NNW 7.7 mph 15.0 mph 45 % 0.00 in
13:02 30.7 °F 12.8 °F 29.98 in WNW 7.0 mph 11.5 mph 47 % 0.00 in
13:08 30.6 °F 13.7 °F 29.99 in NE 7.5 mph 11.5 mph 49 % 0.00 in
13:13 30.6 °F 14.1 °F 29.99 in NW 5.5 mph 7.0 mph 50 % 0.00 in
13:18 30.5 °F 13.1 °F 30.00 in North 5.8 mph 13.8 mph 48 % 0.00 in
13:23 30.4 °F 13.5 °F 29.99 in NNW 4.9 mph 11.0 mph 49 % 0.00 in
13:28 30.3 °F 13.4 °F 30.00 in North 9.6 mph 12.7 mph 49 % 0.00 in
13:33 30.3 °F 12.9 °F 30.00 in NE 6.5 mph 11.0 mph 48 % 0.00 in
13:38 29.9 °F 13.9 °F 30.00 in NNE 8.8 mph 13.8 mph 51 % 0.00 in
13:43 29.7 °F 13.8 °F 30.00 in North 8.3 mph 12.7 mph 51 % 0.00 in
13:48 29.5 °F 13.6 °F 30.00 in North 9.1 mph 19.6 mph 51 % 0.00 in
13:53 29.4 °F 13.5 °F 30.01 in NE 5.8 mph 11.5 mph 51 % 0.00 in
13:59 29.4 °F 13.5 °F 30.00 in North 7.1 mph 15.0 mph 51 % 0.00 in
14:04 29.4 °F 14.4 °F 30.01 in WNW 8.7 mph 12.7 mph 53 % 0.00 in
14:09 29.3 °F 13.8 °F 30.02 in NNE 10.2 mph 17.0 mph 52 % 0.00 in
14:14 28.9 °F 13.9 °F 30.02 in NNE 10.0 mph 13.8 mph 53 % 0.00 in
14:19 28.7 °F 13.7 °F 30.02 in North 10.2 mph 17.3 mph 53 % 0.00 in
14:24 28.3 °F 13.3 °F 30.02 in North 8.2 mph 15.0 mph 53 % 0.00 in
14:29 27.8 °F 12.9 °F 30.03 in NE 9.7 mph 13.8 mph 53 % 0.00 in
14:34 27.6 °F 12.7 °F 30.03 in NNW 10.3 mph 12.7 mph 53 % 0.00 in
14:39 27.4 °F 12.9 °F 30.03 in NNE 8.8 mph 18.0 mph 54 % 0.00 in
14:44 27.2 °F 13.6 °F 30.03 in NNE 10.9 mph 13.8 mph 56 % 0.00 in
14:50 27.0 °F 13.8 °F 30.03 in NNE 7.8 mph 19.0 mph 57 % 0.00 in
14:55 26.7 °F 13.1 °F 30.03 in North 11.4 mph 16.0 mph 56 % 0.00 in
15:00 26.5 °F 12.9 °F 30.04 in North 12.5 mph 21.9 mph 56 % 0.00 in
15:05 26.3 °F 12.3 °F 30.05 in North 10.0 mph 17.3 mph 55 % 0.00 in
15:10 26.0 °F 11.6 °F 30.05 in NNE 12.2 mph 21.9 mph 54 % 0.00 in
15:15 25.8 °F 12.6 °F 30.05 in NE 8.6 mph 13.0 mph 57 % 0.00 in
15:20 25.7 °F 12.9 °F 30.05 in NNW 11.2 mph 17.3 mph 58 % 0.00 in
15:25 25.5 °F 12.0 °F 30.06 in NE 13.5 mph 19.6 mph 56 % 0.00 in
15:30 25.2 °F 11.7 °F 30.07 in NNW 10.5 mph 21.9 mph 56 % 0.00 in
15:35 24.9 °F 11.4 °F 30.06 in NNW 11.0 mph 13.0 mph 56 % 0.00 in
15:41 24.7 °F 10.8 °F 30.07 in NW 11.0 mph 19.6 mph 55 % 0.00 in
15:46 24.4 °F 10.5 °F 30.07 in North 9.8 mph 18.4 mph 55 % 0.00 in
15:51 24.3 °F 10.8 °F 30.07 in NE 7.5 mph 13.8 mph 56 % 0.00 in
15:56 24.2 °F 11.1 °F 30.08 in North 8.8 mph 14.0 mph 57 % 0.00 in
16:01 24.0 °F 11.0 °F 30.08 in NNE 6.6 mph 11.5 mph 57 % 0.00 in
16:06 23.8 °F 10.4 °F 30.08 in North 8.6 mph 19.0 mph 56 % 0.00 in
16:11 23.7 °F 11.4 °F 30.09 in North 8.6 mph 17.3 mph 59 % 0.00 in
16:16 23.5 °F 11.3 °F 30.09 in NW 9.9 mph 18.4 mph 59 % 0.00 in
16:21 23.4 °F 10.8 °F 30.09 in NNW 9.8 mph 17.3 mph 58 % 0.00 in
16:26 23.2 °F 11.4 °F 30.10 in NNW 6.6 mph 15.0 mph 60 % 0.00 in
16:32 22.9 °F 11.8 °F 30.10 in NW 13.4 mph 19.6 mph 62 % 0.00 in
16:37 22.5 °F 11.1 °F 30.11 in North 6.0 mph 15.0 mph 61 % 0.00 in
16:42 22.2 °F 11.1 °F 30.11 in North 13.6 mph 20.7 mph 62 % 0.00 in
16:47 22.0 °F 11.7 °F 30.11 in NNE 9.0 mph 16.0 mph 64 % 0.00 in
16:52 21.7 °F 11.0 °F 30.11 in NE 10.4 mph 16.1 mph 63 % 0.00 in
16:57 21.6 °F 11.6 °F 30.12 in North 13.1 mph 18.4 mph 65 % 0.00 in
17:02 21.4 °F 11.1 °F 30.12 in North 10.7 mph 17.3 mph 64 % 0.00 in
17:07 21.3 °F 11.4 °F 30.13 in North 8.4 mph 20.7 mph 65 % 0.00 in
17:12 21.2 °F 11.3 °F 30.13 in North 11.1 mph 19.6 mph 65 % 0.00 in
17:17 21.1 °F 10.8 °F 30.13 in NW 10.6 mph 17.3 mph 64 % 0.00 in
17:23 21.0 °F 11.1 °F 30.14 in NNW 8.8 mph 13.8 mph 65 % 0.00 in
17:28 20.9 °F 11.0 °F 30.14 in NNE 12.0 mph 19.6 mph 65 % 0.00 in
17:33 20.7 °F 10.8 °F 30.15 in NW 11.9 mph 20.7 mph 65 % 0.00 in
17:38 20.7 °F 11.1 °F 30.15 in NNE 8.3 mph 16.0 mph 66 % 0.00 in
17:43 20.6 °F 11.0 °F 30.15 in NNE 12.5 mph 19.6 mph 66 % 0.00 in
17:48 20.6 °F 11.0 °F 30.16 in NE 6.6 mph 19.0 mph 66 % 0.00 in
17:53 20.5 °F 11.3 °F 30.17 in NNE 8.5 mph 19.6 mph 67 % 0.00 in
17:58 20.4 °F 11.2 °F 30.17 in NNE 8.3 mph 17.3 mph 67 % 0.00 in
18:03 20.2 °F 11.0 °F 30.17 in North 12.5 mph 15.0 mph 67 % 0.00 in
18:08 20.1 °F 10.9 °F 30.17 in NW 9.6 mph 17.3 mph 67 % 0.00 in
18:14 20.0 °F 10.5 °F 30.17 in NNE 12.8 mph 17.0 mph 66 % 0.00 in
18:19 20.0 °F 11.5 °F 30.18 in NNW 8.3 mph 12.7 mph 69 % 0.00 in
18:24 19.9 °F 10.7 °F 30.18 in North 12.5 mph 22.0 mph 67 % 0.00 in
18:29 19.8 °F 10.6 °F 30.18 in NNW 9.1 mph 20.7 mph 67 % 0.00 in
18:34 19.7 °F 10.8 °F 30.18 in NE 9.1 mph 20.0 mph 68 % 0.00 in
18:39 19.6 °F 10.4 °F 30.19 in NNW 9.2 mph 17.3 mph 67 % 0.00 in
18:44 19.5 °F 10.6 °F 30.19 in NE 8.9 mph 15.0 mph 68 % 0.00 in
18:49 19.5 °F 11.0 °F 30.20 in ENE 13.8 mph 17.0 mph 69 % 0.00 in
18:54 19.4 °F 10.9 °F 30.19 in NNE 13.4 mph 18.0 mph 69 % 0.00 in
18:59 19.5 °F 11.3 °F 30.20 in North 15.0 mph 20.7 mph 70 % 0.00 in
19:05 19.5 °F 11.3 °F 30.20 in North 12.0 mph 15.0 mph 70 % 0.00 in
19:10 19.4 °F 11.2 °F 30.20 in North 15.4 mph 19.6 mph 70 % 0.00 in
19:15 19.4 °F 11.5 °F 30.20 in NNW 8.0 mph 8.1 mph 71 % 0.00 in
19:20 19.3 °F 11.1 °F 30.21 in NW 14.1 mph 24.2 mph 70 % 0.00 in
19:25 19.1 °F 10.9 °F 30.21 in NW 9.0 mph 21.9 mph 70 % 0.00 in
19:30 19.0 °F 10.2 °F 30.21 in North 10.2 mph 19.6 mph 68 % 0.00 in
19:35 18.9 °F 10.4 °F 30.22 in North 11.1 mph 21.9 mph 69 % 0.00 in
19:40 18.8 °F 10.3 °F 30.22 in North 13.2 mph 21.9 mph 69 % 0.00 in
19:45 18.6 °F 9.8 °F 30.23 in North 8.5 mph 16.1 mph 68 % 0.00 in
19:50 18.6 °F 9.8 °F 30.23 in NNE 11.1 mph 17.3 mph 68 % 0.00 in
19:56 18.4 °F 9.6 °F 30.24 in NNE 9.7 mph 19.6 mph 68 % 0.00 in
20:01 18.2 °F 9.4 °F 30.23 in NNW 8.2 mph 12.7 mph 68 % 0.00 in
20:06 18.1 °F 9.3 °F 30.24 in NNW 8.4 mph 19.6 mph 68 % 0.00 in
20:11 18.0 °F 9.5 °F 30.24 in NNW 13.1 mph 19.6 mph 69 % 0.00 in
20:16 18.0 °F 9.5 °F 30.25 in NNE 10.0 mph 19.6 mph 69 % 0.00 in
20:21 17.8 °F 8.0 °F 30.25 in NNE 9.4 mph 16.1 mph 65 % 0.00 in
20:26 17.7 °F 8.3 °F 30.25 in North 8.2 mph 15.0 mph 66 % 0.00 in
20:31 17.7 °F 8.6 °F 30.26 in NNE 10.8 mph 15.0 mph 67 % 0.00 in
20:36 17.5 °F 8.1 °F 30.26 in NE 14.1 mph 16.0 mph 66 % 0.00 in
20:41 17.5 °F 8.4 °F 30.27 in North 8.6 mph 15.0 mph 67 % 0.00 in
20:47 17.5 °F 8.1 °F 30.27 in NNE 12.3 mph 17.3 mph 66 % 0.00 in
20:52 17.5 °F 8.7 °F 30.28 in NNE 10.2 mph 13.8 mph 68 % 0.00 in
20:57 17.5 °F 8.1 °F 30.28 in North 12.3 mph 19.6 mph 66 % 0.00 in
21:02 17.3 °F 7.5 °F 30.28 in NNW 9.9 mph 17.3 mph 65 % 0.00 in
21:07 17.3 °F 7.9 °F 30.28 in North 11.7 mph 16.1 mph 66 % 0.00 in
21:12 17.3 °F 7.9 °F 30.27 in North 11.5 mph 18.4 mph 66 % 0.00 in
21:17 17.3 °F 8.5 °F 30.28 in NNE 12.4 mph 17.3 mph 68 % 0.00 in
21:22 17.3 °F 8.2 °F 30.28 in NE 9.9 mph 15.0 mph 67 % 0.00 in
21:27 17.2 °F 7.8 °F 30.28 in NNE 10.8 mph 15.0 mph 66 % 0.00 in
21:32 17.2 °F 8.4 °F 30.29 in North 10.7 mph 11.5 mph 68 % 0.00 in
21:38 17.1 °F 8.0 °F 30.30 in NNE 7.7 mph 20.7 mph 67 % 0.00 in
21:43 17.0 °F 7.3 °F 30.29 in NNE 11.4 mph 19.6 mph 65 % 0.00 in
21:48 16.8 °F 7.4 °F 30.29 in NNE 10.5 mph 15.0 mph 66 % 0.00 in
21:53 16.7 °F 7.3 °F 30.29 in NNE 14.9 mph 21.9 mph 66 % 0.00 in
21:58 16.7 °F 7.6 °F 30.29 in NNW 13.4 mph 17.3 mph 67 % 0.00 in
22:03 16.6 °F 7.5 °F 30.30 in North 15.5 mph 25.3 mph 67 % 0.00 in
22:08 16.6 °F 7.5 °F 30.30 in North 11.5 mph 20.0 mph 67 % 0.00 in
22:13 16.6 °F 7.5 °F 30.30 in NNE 10.2 mph 16.1 mph 67 % 0.00 in
22:18 16.6 °F 7.9 °F 30.30 in NNE 8.4 mph 14.0 mph 68 % 0.00 in
22:23 16.6 °F 8.2 °F 30.31 in North 12.3 mph 14.0 mph 69 % 0.00 in
22:29 16.5 °F 7.8 °F 30.31 in NE 12.9 mph 18.4 mph 68 % 0.00 in
22:34 16.4 °F 7.7 °F 30.31 in ENE 13.6 mph 20.0 mph 68 % 0.00 in
22:39 16.3 °F 7.9 °F 30.32 in NNE 9.1 mph 17.3 mph 69 % 0.00 in
22:44 16.3 °F 7.6 °F 30.32 in NNE 13.8 mph 14.0 mph 68 % 0.00 in
22:49 16.2 °F 7.8 °F 30.32 in North 9.8 mph 17.3 mph 69 % 0.00 in
22:54 16.2 °F 8.1 °F 30.33 in North 9.8 mph 14.0 mph 70 % 0.00 in
22:59 16.2 °F 7.8 °F 30.32 in NNE 10.9 mph 13.8 mph 69 % 0.00 in
23:04 16.1 °F 7.7 °F 30.33 in NE 10.5 mph 15.0 mph 69 % 0.00 in
23:09 16.0 °F 7.6 °F 30.33 in NNW 8.4 mph 17.3 mph 69 % 0.00 in
23:14 15.9 °F 7.2 °F 30.33 in NE 13.6 mph 17.0 mph 68 % 0.00 in
23:20 15.8 °F 7.4 °F 30.34 in NNE 10.8 mph 17.3 mph 69 % 0.00 in
23:25 15.7 °F 6.7 °F 30.34 in North 9.6 mph 17.3 mph 67 % 0.00 in
23:30 15.6 °F 7.2 °F 30.34 in NNW 8.8 mph 11.5 mph 69 % 0.00 in
23:35 15.6 °F 7.2 °F 30.34 in NE 12.0 mph 18.4 mph 69 % 0.00 in
23:40 15.5 °F 6.5 °F 30.34 in NNE 8.1 mph 17.3 mph 67 % 0.00 in
23:45 15.2 °F 6.2 °F 30.34 in NNW 9.9 mph 15.0 mph 67 % 0.00 in
23:50 15.2 °F 6.5 °F 30.35 in NNE 7.6 mph 11.5 mph 68 % 0.00 in
23:55 15.1 °F 6.8 °F 30.35 in NW 8.9 mph 16.1 mph 69 % 0.00 in
Crab Meadow Weather
Compliments of Weather Underground - 3 mb

Script developed by  Jim McMurry - jmcmurry@mwt.net Adapted for the template by  Wim van der Kuil - Leuven-Template.eu

Extremes: A record low of - 128.6 degrees F was recorded at Vostok, Antarctica.